Time;durP1;ratioP1;P1;durP2;ratioP2;P2;SDS_P1;SDS_P2;PMS_P1;PMS_P2;Temp;Humidity;BMP_temperature;BMP_pressure;BME280_temperature;BME280_humidity;BME280_pressure;Samples;Min_cycle;Max_cycle;Signal;HPM_P1;HPM_P2
2021/06/15 00:02:11;;;;;;;10.70;4.85;;;;;;;19.46;59.56;100508.50;5034751;28;20107;-79
2021/06/15 00:04:38;;;;;;;11.23;5.18;;;;;;;19.34;59.51;100501.53;5035597;28;20389;-80
2021/06/15 00:07:05;;;;;;;11.90;4.97;;;;;;;19.36;60.27;100511.22;5034599;28;20167;-79
2021/06/15 00:09:31;;;;;;;11.50;4.88;;;;;;;19.32;60.43;100520.59;5034543;28;20091;-80
2021/06/15 00:11:58;;;;;;;13.13;5.47;;;;;;;19.29;60.71;100517.34;5035305;28;20088;-78
2021/06/15 00:14:25;;;;;;;12.82;4.85;;;;;;;19.14;60.96;100526.72;5034408;28;20072;-80
2021/06/15 00:16:52;;;;;;;12.20;4.65;;;;;;;19.08;60.98;100516.47;5018250;28;20435;-81
2021/06/15 00:19:21;;;;;;;12.02;5.32;;;;;;;18.93;62.45;100517.81;5030591;28;20089;-80
2021/06/15 00:21:48;;;;;;;10.70;5.45;;;;;;;18.76;62.73;100517.53;5015573;28;20137;-80
2021/06/15 00:24:14;;;;;;;9.07;5.30;;;;;;;18.73;62.96;100534.00;5015804;28;20084;-80
2021/06/15 00:26:43;;;;;;;14.93;5.72;;;;;;;18.70;63.41;100528.88;5015750;28;20066;-80
2021/06/15 00:29:10;;;;;;;12.60;5.50;;;;;;;18.70;63.33;100537.84;5015865;28;20045;-80
2021/06/15 00:31:37;;;;;;;13.32;5.53;;;;;;;18.63;63.96;100530.44;5015462;28;20050;-80
2021/06/15 00:34:04;;;;;;;12.10;5.75;;;;;;;18.44;64.35;100535.63;5015454;28;20080;-80
2021/06/15 00:36:31;;;;;;;10.75;5.10;;;;;;;18.48;64.75;100530.81;5015831;28;20049;-80
2021/06/15 00:38:57;;;;;;;11.10;5.57;;;;;;;18.45;64.78;100526.53;5014693;28;20046;-80
2021/06/15 00:41:24;;;;;;;9.55;5.55;;;;;;;18.52;64.92;100534.09;5015256;28;20069;-79
2021/06/15 00:43:51;;;;;;;13.18;6.00;;;;;;;18.42;65.40;100531.34;5015643;28;20100;-80
2021/06/15 00:46:18;;;;;;;13.50;6.15;;;;;;;18.30;65.66;100531.44;5014723;28;20124;-79
2021/06/15 00:48:45;;;;;;;12.00;5.53;;;;;;;18.27;65.67;100531.72;5016866;28;20046;-80
2021/06/15 00:51:14;;;;;;;12.85;6.07;;;;;;;18.26;65.68;100540.78;5019582;28;20058;-80
2021/06/15 00:53:41;;;;;;;14.82;6.57;;;;;;;18.21;65.98;100540.38;5019647;28;20053;-80
2021/06/15 00:56:08;;;;;;;11.75;6.57;;;;;;;18.06;66.43;100537.16;5019264;28;20137;-79
2021/06/15 00:58:36;;;;;;;11.95;6.38;;;;;;;18.09;66.59;100544.13;5019269;28;20054;-80
2021/06/15 01:01:04;;;;;;;13.60;6.82;;;;;;;18.12;66.19;100546.56;5019689;28;20060;-80
2021/06/15 01:03:32;;;;;;;16.13;6.82;;;;;;;18.02;66.56;100547.31;5019571;28;20049;-79
2021/06/15 01:06:04;;;;;;;13.15;6.85;;;;;;;18.01;66.90;100544.75;5019650;28;20060;-78
2021/06/15 01:08:48;;;;;;;10.02;6.10;;;;;;;17.87;67.11;100529.75;5019416;28;20061;-79
2021/06/15 01:11:50;;;;;;;13.35;7.03;;;;;;;17.98;67.26;100543.16;5019357;28;20100;-80
2021/06/15 01:14:36;;;;;;;16.52;7.30;;;;;;;17.86;67.73;100546.94;5019066;28;20096;-80
2021/06/15 01:17:12;;;;;;;15.13;6.93;;;;;;;17.77;68.32;100544.03;5019181;28;20129;-80
2021/06/15 01:20:14;;;;;;;11.23;6.82;;;;;;;17.76;68.50;100542.31;5026772;28;20050;-79
2021/06/15 01:22:50;;;;;;;11.65;7.50;;;;;;;17.72;68.46;100540.03;5038775;28;20085;-80
2021/06/15 01:25:41;;;;;;;13.10;7.78;;;;;;;17.65;68.70;100540.53;5038746;28;20143;-79
2021/06/15 01:28:45;;;;;;;18.67;8.02;;;;;;;17.62;69.17;100545.34;5038432;28;20046;-79
2021/06/15 01:31:22;;;;;;;18.10;8.77;;;;;;;17.57;69.05;100532.25;5038366;28;20088;-80
2021/06/15 01:33:52;;;;;;;14.23;8.82;;;;;;;17.63;68.85;100537.13;5037874;28;20079;-81
2021/06/15 01:36:23;;;;;;;16.92;8.70;;;;;;;17.50;69.52;100534.59;5037920;28;20053;-79
2021/06/15 01:38:57;;;;;;;14.45;8.73;;;;;;;17.47;69.78;100529.47;5037763;28;20056;-80
2021/06/15 01:41:28;;;;;;;17.63;8.95;;;;;;;17.48;69.33;100528.47;5037771;28;20366;-79
2021/06/15 01:44:00;;;;;;;14.20;8.40;;;;;;;17.20;70.07;100517.31;5037761;28;20053;-79
2021/06/15 01:46:34;;;;;;;20.48;9.38;;;;;;;17.20;70.91;100536.19;5038000;28;20095;-80
2021/06/15 01:49:04;;;;;;;16.50;8.38;;;;;;;17.17;70.97;100531.03;5037539;28;20159;-80
2021/06/15 01:51:32;;;;;;;;;;;;;;;17.27;70.79;100531.13;5037924;28;20065;-79
2021/06/15 01:54:09;;;;;;;15.75;8.60;;;;;;;17.22;71.12;100528.00;5037742;28;19991;-80
2021/06/15 01:56:42;;;;;;;16.45;8.75;;;;;;;17.22;70.84;100530.69;5037304;28;20384;-81
2021/06/15 01:59:12;;;;;;;16.50;8.48;;;;;;;17.23;70.80;100517.06;5037734;28;20057;-78
2021/06/15 02:01:45;;;;;;;16.90;8.43;;;;;;;17.20;71.02;100519.16;5037503;28;20195;-81
2021/06/15 02:04:13;;;;;;;18.20;8.52;;;;;;;17.17;70.96;100501.38;5036378;28;20148;-80
2021/06/15 02:06:45;;;;;;;12.93;8.00;;;;;;;17.23;71.21;100519.75;5036439;28;20045;-79
2021/06/15 02:09:13;;;;;;;15.90;8.27;;;;;;;17.08;71.69;100512.94;5036928;28;20061;-81
2021/06/15 02:11:41;;;;;;;16.92;8.60;;;;;;;17.05;72.02;100511.34;5037182;28;20055;-80
2021/06/15 02:14:17;;;;;;;15.18;8.52;;;;;;;17.12;71.74;100516.25;5037508;28;20060;-80
2021/06/15 02:16:49;;;;;;;17.60;8.32;;;;;;;17.03;72.16;100512.47;5036997;28;20382;-80
2021/06/15 02:19:21;;;;;;;17.00;8.65;;;;;;;16.73;72.53;100498.69;5032327;28;20466;-81
2021/06/15 02:21:54;;;;;;;16.20;8.07;;;;;;;16.90;72.62;100523.38;5017518;28;20050;-81
2021/06/15 02:24:24;;;;;;;16.20;8.15;;;;;;;16.84;72.82;100524.75;5017189;28;20092;-80
2021/06/15 02:26:52;;;;;;;12.00;8.07;;;;;;;16.91;72.79;100517.88;5017324;28;20053;-79
2021/06/15 02:29:19;;;;;;;14.40;7.80;;;;;;;17.00;72.65;100510.84;5016956;28;20474;-80
2021/06/15 02:31:52;;;;;;;12.88;7.43;;;;;;;16.92;72.40;100503.41;5017567;28;20108;-79
2021/06/15 02:34:21;;;;;;;13.20;7.95;;;;;;;16.97;72.52;100514.69;5017098;28;20061;-81
2021/06/15 02:36:49;;;;;;;14.25;7.75;;;;;;;16.80;72.94;100507.97;5015921;28;20054;-79
2021/06/15 02:39:20;;;;;;;14.80;7.70;;;;;;;16.79;73.53;100513.47;5017352;28;20077;-79
2021/06/15 02:41:51;;;;;;;13.43;8.23;;;;;;;16.80;73.10;100516.06;5016829;28;20149;-80
2021/06/15 02:44:19;;;;;;;;;;;;;;;16.80;73.29;100509.81;5017280;28;20061;-80
2021/06/15 02:46:54;;;;;;;13.95;7.65;;;;;;;16.81;73.33;100517.78;5017159;28;19921;-79
2021/06/15 02:49:24;;;;;;;16.63;7.22;;;;;;;16.79;73.55;100517.03;5016991;28;20058;-79
2021/06/15 02:52:24;;;;;;;14.52;7.25;;;;;;;16.75;73.71;100514.72;5016966;28;20133;-80
2021/06/15 02:54:57;;;;;;;11.65;7.28;;;;;;;16.72;73.95;100523.91;5016947;28;20046;-81
2021/06/15 02:57:26;;;;;;;15.23;7.22;;;;;;;16.69;74.38;100521.47;5015954;28;20050;-80
2021/06/15 02:59:55;;;;;;;12.93;7.65;;;;;;;16.71;74.29;100519.50;5016502;28;20084;-80
2021/06/15 03:02:23;;;;;;;14.73;7.95;;;;;;;16.66;74.67;100522.56;5016464;28;20404;-79
2021/06/15 03:04:49;;;;;;;16.55;7.38;;;;;;;16.68;74.47;100525.97;5015582;28;20726;-80
2021/06/15 03:07:16;;;;;;;12.05;7.53;;;;;;;16.62;74.66;100513.00;5016632;28;20054;-80
2021/06/15 03:09:44;;;;;;;13.02;8.20;;;;;;;16.67;74.41;100534.22;5017952;28;20514;-80
2021/06/15 03:12:24;;;;;;;21.10;9.23;;;;;;;16.59;74.62;100547.44;5025622;28;20049;-80
2021/06/15 03:15:08;;;;;;;14.77;8.30;;;;;;;16.61;74.72;100540.09;5026179;28;20149;-81
2021/06/15 03:17:42;;;;;;;17.13;8.50;;;;;;;16.41;75.63;100550.63;5017225;28;20085;-81
2021/06/15 03:20:10;;;;;;;13.88;7.93;;;;;;;16.41;75.72;100543.38;5028374;28;20100;-82
2021/06/15 03:22:56;;;;;;;10.32;7.72;;;;;;;16.46;75.56;100547.56;5043561;28;20488;-80
2021/06/15 03:25:30;;;;;;;16.38;9.18;;;;;;;16.41;75.58;100532.63;5043916;28;20493;-80
2021/06/15 03:28:01;;;;;;;16.77;8.55;;;;;;;16.50;75.55;100539.09;5034859;28;20053;-81
2021/06/15 03:30:30;;;;;;;12.77;8.20;;;;;;;16.51;75.59;100529.19;5035274;28;20462;-78
2021/06/15 03:33:05;;;;;;;12.50;8.13;;;;;;;16.54;75.67;100539.72;5036467;28;20049;-81
2021/06/15 03:35:36;;;;;;;16.15;8.70;;;;;;;16.48;75.59;100537.50;5035962;28;20053;-78
2021/06/15 03:38:05;;;;;;;16.08;8.70;;;;;;;16.29;76.17;100528.22;5034880;28;20354;-80
2021/06/15 03:40:39;;;;;;;14.25;8.30;;;;;;;16.29;76.69;100541.69;5035591;28;20128;-80
2021/06/15 03:43:08;;;;;;;13.40;9.15;;;;;;;16.32;76.68;100552.22;5035703;28;20411;-80
2021/06/15 03:45:41;;;;;;;13.73;8.85;;;;;;;16.37;76.46;100558.09;5035951;28;20045;-80
2021/06/15 03:48:08;;;;;;;10.52;8.07;;;;;;;16.38;76.70;100564.34;5035547;28;20399;-79
2021/06/15 03:50:37;;;;;;;17.75;9.45;;;;;;;16.32;76.68;100551.34;5034632;28;20050;-78
2021/06/15 03:53:09;;;;;;;18.25;9.40;;;;;;;16.48;76.50;100561.75;5034351;28;20057;-80
2021/06/15 03:55:39;;;;;;;14.60;8.52;;;;;;;16.50;76.30;100559.81;5035414;28;20049;-79
2021/06/15 03:58:08;;;;;;;18.08;10.40;;;;;;;16.53;76.47;100554.19;5035677;28;20091;-78
2021/06/15 04:00:37;;;;;;;17.58;10.32;;;;;;;16.66;76.27;100560.28;5035499;28;20399;-80
2021/06/15 04:03:08;;;;;;;17.60;10.18;;;;;;;16.63;76.85;100560.56;5035174;28;20056;-80
2021/06/15 04:05:38;;;;;;;21.50;12.15;;;;;;;16.66;76.61;100565.69;5034438;28;20095;-81
2021/06/15 04:08:07;;;;;;;19.23;13.13;;;;;;;16.81;76.49;100558.22;5035579;28;20107;-80
2021/06/15 04:10:37;;;;;;;28.58;15.82;;;;;;;16.87;76.99;100558.66;5035143;28;20103;-80
2021/06/15 04:13:05;;;;;;;29.77;17.03;;;;;;;16.90;77.26;100562.00;5035042;28;20064;-79
2021/06/15 04:15:35;;;;;;;26.73;17.02;;;;;;;16.78;77.15;100541.44;5033997;28;20061;-80
2021/06/15 04:18:05;;;;;;;23.63;16.77;;;;;;;16.95;77.37;100556.22;5035253;28;20061;-80
2021/06/15 04:20:39;;;;;;;24.35;17.63;;;;;;;17.02;77.32;100565.56;5020179;28;20064;-80
2021/06/15 04:23:08;;;;;;;27.15;17.38;;;;;;;17.14;76.93;100569.06;5012996;28;20386;-80
2021/06/15 04:25:41;;;;;;;27.77;18.00;;;;;;;17.22;76.77;100576.53;5014990;28;20394;-79
2021/06/15 04:28:10;;;;;;;30.40;19.77;;;;;;;17.25;76.84;100584.38;5015224;28;20054;-79
2021/06/15 04:30:37;;;;;;;26.27;18.25;;;;;;;17.26;76.74;100583.38;5014981;28;20045;-79
2021/06/15 04:33:08;;;;;;;30.00;19.63;;;;;;;17.35;76.67;100581.75;5014283;28;20054;-78
2021/06/15 04:35:47;;;;;;;29.17;20.85;;;;;;;17.30;77.10;100583.97;5014885;28;20328;-80
2021/06/15 04:38:32;;;;;;;31.00;18.63;;;;;;;17.34;77.44;100585.44;5015107;28;20104;-82
2021/06/15 04:41:06;;;;;;;29.38;20.52;;;;;;;17.26;77.45;100566.34;5014769;28;20050;-79
2021/06/15 04:43:38;;;;;;;28.75;20.58;;;;;;;17.38;77.70;100586.91;5015263;28;20049;-79
2021/06/15 04:46:31;;;;;;;28.95;20.80;;;;;;;17.28;78.25;100569.78;5014861;28;20042;-81
2021/06/15 04:49:15;;;;;;;29.98;21.48;;;;;;;17.32;78.12;100587.44;5014737;28;20089;-81
2021/06/15 04:51:49;;;;;;;33.17;20.77;;;;;;;17.26;78.56;100577.16;5014987;28;20119;-80
2021/06/15 04:54:20;;;;;;;31.17;22.60;;;;;;;17.41;78.54;100602.84;5015027;28;20490;-79
2021/06/15 04:56:49;;;;;;;28.55;22.10;;;;;;;17.30;78.69;100602.88;5014636;28;20710;-81
2021/06/15 04:59:21;;;;;;;32.97;23.08;;;;;;;17.26;79.34;100609.50;5013935;28;20402;-79
2021/06/15 05:01:49;;;;;;;31.77;22.95;;;;;;;17.29;79.77;100612.81;5014596;28;20478;-80
2021/06/15 05:04:17;;;;;;;29.23;23.20;;;;;;;17.20;79.99;100625.22;5015032;28;20352;-80
2021/06/15 05:06:45;;;;;;;31.02;23.25;;;;;;;17.13;80.71;100618.59;5015096;28;20111;-81
2021/06/15 05:09:14;;;;;;;27.95;23.65;;;;;;;17.27;80.03;100616.63;5014115;28;20054;-80
2021/06/15 05:11:42;;;;;;;33.10;23.30;;;;;;;17.16;80.39;100612.94;5015072;28;20100;-78
2021/06/15 05:14:12;;;;;;;34.60;23.35;;;;;;;17.15;80.51;100603.16;5014860;28;20490;-78
2021/06/15 05:16:40;;;;;;;35.40;23.50;;;;;;;17.17;79.90;100587.69;5015042;28;20046;-78
2021/06/15 05:19:07;;;;;;;34.35;23.20;;;;;;;17.40;79.73;100638.91;5033593;28;20136;-81
2021/06/15 05:21:50;;;;;;;28.63;22.05;;;;;;;17.26;80.22;100634.63;5034611;28;20117;-83
2021/06/15 05:24:49;;;;;;;32.47;22.42;;;;;;;17.37;80.23;100639.13;5033472;28;20057;-79
2021/06/15 05:27:17;;;;;;;29.33;22.17;;;;;;;17.26;80.51;100623.84;5034347;28;20046;-79
2021/06/15 05:29:44;;;;;;;32.75;22.33;;;;;;;17.38;80.05;100619.28;5034520;28;20378;-79
2021/06/15 05:32:11;;;;;;;35.58;22.75;;;;;;;17.40;80.34;100629.94;5033319;28;20119;-78
2021/06/15 05:34:38;;;;;;;28.92;22.23;;;;;;;17.31;80.32;100626.16;5034333;28;20054;-79
2021/06/15 05:37:06;;;;;;;33.40;23.13;;;;;;;17.50;80.02;100636.31;5037560;28;20111;-78
2021/06/15 05:39:34;;;;;;;36.22;23.30;;;;;;;17.56;79.79;100637.63;5037033;28;20053;-79
2021/06/15 05:42:01;;;;;;;30.95;22.85;;;;;;;17.54;79.70;100618.84;5037623;28;20397;-80
2021/06/15 05:44:28;;;;;;;34.00;22.63;;;;;;;17.62;79.98;100626.31;5024337;28;20046;-77
2021/06/15 05:46:56;;;;;;;31.88;23.33;;;;;;;17.74;79.70;100622.59;5024620;28;20050;-79
2021/06/15 05:49:22;;;;;;;27.50;21.90;;;;;;;17.81;79.40;100619.38;5025720;28;20057;-77
2021/06/15 05:52:02;;;;;;;32.10;23.00;;;;;;;17.89;78.69;100620.44;5028108;28;20431;-77
2021/06/15 05:54:29;;;;;;;31.35;22.80;;;;;;;17.90;78.81;100611.34;5027713;28;20404;-77
2021/06/15 05:56:58;;;;;;;33.33;22.75;;;;;;;17.97;78.51;100614.38;5026233;28;20120;-77
2021/06/15 05:59:26;;;;;;;34.20;24.80;;;;;;;18.01;78.69;100618.53;5024756;28;20442;-77
2021/06/15 06:01:53;;;;;;;33.28;23.63;;;;;;;18.03;78.39;100613.84;5026293;28;20050;-77
2021/06/15 06:04:23;;;;;;;32.90;24.75;;;;;;;18.05;78.84;100629.97;5026969;28;20057;-77
2021/06/15 06:09:39;;;;;;;43.17;29.40;;;;;;;18.08;78.54;100634.25;5022905;28;20045;-77
2021/06/15 06:12:08;;;;;;;39.65;30.95;;;;;;;18.02;79.09;100627.47;5034609;28;20057;-77
2021/06/15 06:14:36;;;;;;;45.25;31.45;;;;;;;18.15;78.84;100638.16;5036921;28;20060;-79
2021/06/15 06:17:04;;;;;;;39.60;30.33;;;;;;;18.22;78.56;100635.75;5036419;28;20049;-77
2021/06/15 06:19:30;;;;;;;47.67;31.75;;;;;;;18.24;78.28;100626.53;5028905;28;20053;-79
2021/06/15 06:21:57;;;;;;;37.80;29.80;;;;;;;18.34;78.20;100625.75;5015565;28;20391;-77
2021/06/15 06:24:24;;;;;;;47.15;29.83;;;;;;;18.29;78.58;100627.00;5016883;28;20062;-77
2021/06/15 06:26:53;;;;;;;40.40;29.15;;;;;;;18.39;78.27;100621.66;5032201;28;20091;-77
2021/06/15 06:29:21;;;;;;;41.88;30.77;;;;;;;18.37;77.96;100628.19;5016921;28;20502;-78
2021/06/15 06:31:49;;;;;;;39.88;28.77;;;;;;;18.36;77.96;100607.56;5015984;28;20108;-78
2021/06/15 06:34:15;;;;;;;41.33;26.55;;;;;;;18.66;77.30;100631.03;5016877;28;20053;-79
2021/06/15 06:36:42;;;;;;;39.88;25.88;;;;;;;18.69;76.88;100635.31;5032289;28;20053;-78
2021/06/15 06:39:09;;;;;;;38.17;24.95;;;;;;;18.69;77.04;100636.16;5016823;28;20053;-80
2021/06/15 06:41:37;;;;;;;43.25;25.33;;;;;;;18.82;77.03;100635.97;5016739;28;20053;-79
2021/06/15 06:44:05;;;;;;;39.38;23.90;;;;;;;18.70;76.62;100602.72;5015905;28;20407;-79
2021/06/15 06:46:32;;;;;;;35.47;23.92;;;;;;;19.03;76.23;100648.59;5014846;28;20710;-79
2021/06/15 06:48:59;;;;;;;33.38;23.90;;;;;;;19.14;76.00;100651.16;5015730;28;20050;-79
2021/06/15 06:51:26;;;;;;;40.05;25.38;;;;;;;19.18;76.21;100656.31;5016750;28;20435;-77
2021/06/15 06:53:53;;;;;;;34.83;24.58;;;;;;;19.20;75.19;100663.31;5016531;28;20046;-76
2021/06/15 06:56:20;;;;;;;37.28;24.33;;;;;;;19.19;75.40;100648.06;5016349;28;20187;-82
2021/06/15 06:58:48;;;;;;;33.60;24.27;;;;;;;19.37;74.39;100656.38;5025151;28;20046;-80
2021/06/15 07:01:15;;;;;;;37.10;25.55;;;;;;;19.33;74.91;100635.16;5026747;28;20049;-80
2021/06/15 07:03:42;;;;;;;37.92;26.27;;;;;;;19.60;74.21;100642.56;5025474;28;20038;-82
2021/06/15 07:06:09;;;;;;;34.63;24.23;;;;;;;19.53;74.33;100646.84;5041866;28;20050;-82
2021/06/15 07:08:36;;;;;;;39.03;23.92;;;;;;;19.61;74.19;100657.81;5042221;28;20435;-78
2021/06/15 07:11:03;;;;;;;42.20;24.58;;;;;;;19.71;73.61;100657.00;5023316;28;20089;-79
2021/06/15 07:13:29;;;;;;;36.72;24.17;;;;;;;19.77;73.63;100649.13;5024071;28;20046;-80
2021/06/15 07:15:57;;;;;;;35.60;24.25;;;;;;;19.72;73.59;100637.03;5027697;28;20052;-80
2021/06/15 07:18:26;;;;;;;37.87;24.50;;;;;;;19.81;73.46;100647.88;5019952;28;20046;-82
2021/06/15 07:20:54;;;;;;;37.55;24.45;;;;;;;19.87;73.74;100648.31;5038848;28;20640;-79
2021/06/15 07:23:21;;;;;;;32.25;25.13;;;;;;;19.97;73.35;100654.59;5008499;28;20210;-78
2021/06/15 07:25:48;;;;;;;35.08;24.05;;;;;;;20.02;73.29;100655.03;5022062;28;20438;-80
2021/06/15 07:28:15;;;;;;;36.15;23.63;;;;;;;20.06;73.00;100663.72;5023782;28;20497;-77
2021/06/15 07:30:42;;;;;;;38.08;24.67;;;;;;;20.13;72.84;100651.31;5024062;28;20459;-77
2021/06/15 07:33:16;;;;;;;34.20;25.20;;;;;;;20.21;71.09;100654.13;5021490;28;20054;-79
2021/06/15 07:35:42;;;;;;;32.58;23.92;;;;;;;19.98;71.78;100648.16;5025814;28;20091;-79
2021/06/15 07:38:09;;;;;;;39.78;24.85;;;;;;;20.08;71.95;100659.88;5021589;28;20100;-79
2021/06/15 07:40:36;;;;;;;39.83;24.58;;;;;;;20.17;72.42;100660.88;5023143;28;20474;-80
2021/06/15 07:43:04;;;;;;;38.53;24.88;;;;;;;20.26;72.31;100664.53;5015732;28;20053;-76
2021/06/15 07:45:36;;;;;;;38.63;23.92;;;;;;;20.35;71.84;100669.09;5023841;28;20057;-77
2021/06/15 07:48:03;;;;;;;35.60;24.38;;;;;;;20.52;71.11;100663.09;5024431;28;20427;-76
2021/06/15 07:50:30;;;;;;;40.65;25.40;;;;;;;20.46;70.68;100659.94;5025523;28;20053;-77
2021/06/15 07:52:58;;;;;;;39.90;24.00;;;;;;;20.41;70.90;100654.09;5026407;28;20129;-76
2021/06/15 07:55:25;;;;;;;37.10;22.30;;;;;;;20.55;70.84;100657.34;5021987;28;20057;-77
2021/06/15 07:57:52;;;;;;;38.25;24.35;;;;;;;20.57;70.88;100663.47;5022287;28;20038;-78
2021/06/15 08:00:19;;;;;;;29.58;22.83;;;;;;;20.72;70.30;100667.44;5025034;28;20103;-77
2021/06/15 08:02:47;;;;;;;32.60;23.23;;;;;;;20.69;70.06;100662.31;5027052;28;20056;-78
2021/06/15 08:05:14;;;;;;;29.92;21.08;;;;;;;20.84;69.83;100664.56;5009184;28;20050;-81
2021/06/15 08:07:44;;;;;;;33.72;21.42;;;;;;;21.06;69.34;100673.31;5036451;28;20052;-78
2021/06/15 08:10:11;;;;;;;38.38;22.75;;;;;;;21.15;68.70;100670.56;5026994;28;20054;-78
2021/06/15 08:12:38;;;;;;;38.40;21.73;;;;;;;21.30;68.63;100676.34;5007018;28;20048;-78
2021/06/15 08:15:05;;;;;;;34.70;21.60;;;;;;;21.28;68.33;100667.50;5023755;28;20050;-80
2021/06/15 08:17:32;;;;;;;35.53;22.05;;;;;;;21.06;68.89;100659.75;5027753;28;20038;-78
2021/06/15 08:19:59;;;;;;;30.73;21.10;;;;;;;21.06;69.84;100662.47;5035245;28;20367;-77
2021/06/15 08:22:26;;;;;;;33.00;21.58;;;;;;;21.03;68.97;100652.78;5023474;28;20065;-77
2021/06/15 08:24:52;;;;;;;34.13;20.25;;;;;;;21.20;68.79;100663.84;5026106;28;20100;-77
2021/06/15 08:27:19;;;;;;;29.30;19.23;;;;;;;21.33;68.02;100658.03;5026500;28;20112;-76
2021/06/15 08:29:46;;;;;;;32.30;19.63;;;;;;;21.30;67.23;100662.78;5025552;28;20119;-77
2021/06/15 08:32:13;;;;;;;29.33;19.20;;;;;;;21.30;67.96;100659.22;5024251;28;20042;-77
2021/06/15 08:34:39;;;;;;;28.83;16.92;;;;;;;21.42;68.07;100665.28;5024233;28;20082;-77
2021/06/15 08:37:07;;;;;;;24.33;16.20;;;;;;;21.36;66.69;100650.44;5030822;28;20041;-76
2021/06/15 08:39:34;;;;;;;19.27;12.18;;;;;;;21.60;63.47;100656.28;5009395;28;20064;-76
2021/06/15 08:42:01;;;;;;;16.27;11.52;;;;;;;21.75;63.89;100664.78;5005375;28;20054;-79
2021/06/15 08:44:28;;;;;;;17.30;12.55;;;;;;;21.86;63.14;100652.84;5023313;28;20124;-77
2021/06/15 08:46:56;;;;;;;17.63;11.77;;;;;;;21.99;62.67;100656.00;5024364;28;20053;-77
2021/06/15 08:49:23;;;;;;;18.10;10.77;;;;;;;22.16;62.43;100653.44;5025180;28;20100;-76
2021/06/15 08:51:50;;;;;;;21.23;11.65;;;;;;;22.19;61.76;100647.69;5024506;28;20064;-79
2021/06/15 08:54:18;;;;;;;20.23;11.18;;;;;;;22.33;61.42;100654.41;5021970;28;20046;-77
2021/06/15 08:56:45;;;;;;;17.25;9.23;;;;;;;22.38;59.55;100631.16;5032931;28;20099;-76
2021/06/15 08:59:28;;;;;;;14.52;9.05;;;;;;;22.52;60.69;100653.38;5024906;28;20050;-75
2021/06/15 09:01:58;;;;;;;11.57;8.55;;;;;;;22.42;59.30;100649.88;5026971;28;20061;-76
2021/06/15 09:04:25;;;;;;;14.25;8.43;;;;;;;22.44;59.88;100640.53;5034476;28;20053;-76
2021/06/15 09:06:56;;;;;;;17.75;10.40;;;;;;;22.57;60.00;100648.31;5034237;28;20050;-75
2021/06/15 09:09:43;;;;;;;18.48;9.85;;;;;;;22.67;59.61;100652.78;5035172;28;20394;-77
2021/06/15 09:12:12;;;;;;;14.80;7.97;;;;;;;22.82;59.85;100653.03;5038205;28;20041;-76
2021/06/15 09:14:43;;;;;;;18.20;8.77;;;;;;;22.88;59.17;100652.41;5037865;28;20427;-76
2021/06/15 09:17:26;;;;;;;13.27;7.82;;;;;;;23.03;58.41;100647.16;5036965;28;20054;-74
2021/06/15 09:20:11;;;;;;;14.93;7.35;;;;;;;23.05;58.98;100640.53;5030571;28;20104;-75
2021/06/15 09:22:39;;;;;;;14.57;7.22;;;;;;;23.14;58.07;100632.41;5038014;28;20046;-77
2021/06/15 09:25:10;;;;;;;13.23;7.50;;;;;;;23.33;57.04;100644.94;5038316;28;20096;-76
2021/06/15 09:27:38;;;;;;;12.82;7.60;;;;;;;23.26;56.61;100622.06;5036066;28;20107;-83
2021/06/15 09:30:15;;;;;;;11.13;7.30;;;;;;;23.11;57.12;100633.59;5036982;28;20053;-76
2021/06/15 09:32:43;;;;;;;11.05;7.38;;;;;;;23.16;57.16;100638.56;5038083;28;20057;-76
2021/06/15 09:35:14;;;;;;;10.75;6.47;;;;;;;23.17;57.74;100616.63;5038185;28;20095;-76
2021/06/15 09:37:55;;;;;;;8.35;5.07;;;;;;;23.30;56.79;100637.06;5037823;28;20065;-77
2021/06/15 09:40:34;;;;;;;10.93;5.20;;;;;;;23.31;55.32;100641.53;5038452;28;20053;-76
2021/06/15 09:43:01;;;;;;;9.88;4.93;;;;;;;23.29;55.76;100644.38;5036543;28;20335;-75
2021/06/15 09:45:47;;;;;;;6.53;4.20;;;;;;;23.12;55.75;100645.34;5038007;28;20060;-78
2021/06/15 09:48:29;;;;;;;8.73;4.28;;;;;;;23.19;56.37;100646.38;5037758;28;20050;-77
2021/06/15 09:51:01;;;;;;;14.30;4.30;;;;;;;23.30;56.08;100642.53;5026061;28;20049;-75
2021/06/15 09:53:37;;;;;;;12.48;3.72;;;;;;;23.58;54.96;100647.69;5028395;28;20049;-73
2021/06/15 09:56:07;;;;;;;7.18;3.15;;;;;;;23.87;54.20;100638.22;5026631;28;20056;-74
2021/06/15 09:58:48;;;;;;;14.40;3.33;;;;;;;24.16;52.90;100649.63;5026380;28;20045;-78
2021/06/15 10:01:40;;;;;;;4.05;2.13;;;;;;;24.37;50.44;100654.56;5024560;28;20160;-78
2021/06/15 10:04:14;;;;;;;4.80;2.10;;;;;;;24.44;50.31;100633.75;5028043;28;20053;-75
2021/06/15 10:06:47;;;;;;;2.60;1.80;;;;;;;24.43;47.99;100632.06;5028105;28;20439;-74
2021/06/15 10:09:26;;;;;;;3.20;1.40;;;;;;;24.49;47.64;100635.94;5028149;28;20109;-74
2021/06/15 10:12:00;;;;;;;3.58;1.63;;;;;;;24.38;47.39;100627.13;5025262;28;20049;-75
2021/06/15 10:14:28;;;;;;;1.20;1.05;;;;;;;24.50;47.07;100622.16;5023819;28;20062;-77
2021/06/15 10:16:57;;;;;;;3.10;1.63;;;;;;;24.52;47.54;100620.09;5024428;28;20132;-75
2021/06/15 10:19:25;;;;;;;5.20;1.55;;;;;;;24.74;48.31;100624.97;5026666;28;20053;-73
2021/06/15 10:21:54;;;;;;;2.38;1.50;;;;;;;24.97;47.27;100636.00;5020971;28;20054;-77
2021/06/15 10:24:25;;;;;;;7.03;1.58;;;;;;;24.94;45.96;100626.28;5025419;28;20062;-78
2021/06/15 10:27:03;;;;;;;2.65;1.40;;;;;;;24.85;47.89;100615.59;5025203;28;20053;-78
2021/06/15 10:29:32;;;;;;;2.80;1.70;;;;;;;25.15;45.97;100633.03;5028603;28;20111;-79
2021/06/15 10:32:17;;;;;;;4.50;1.98;;;;;;;25.32;46.14;100631.06;5025585;28;20053;-80
2021/06/15 10:34:46;;;;;;;2.33;1.40;;;;;;;25.38;46.15;100634.09;5024874;28;20057;-81
2021/06/15 10:37:31;;;;;;;5.70;1.50;;;;;;;25.62;45.39;100636.69;5025429;28;20045;-78
2021/06/15 10:40:26;;;;;;;3.55;1.77;;;;;;;25.70;45.78;100624.03;5027739;28;20109;-81
2021/06/15 10:43:11;;;;;;;3.28;1.67;;;;;;;25.89;44.61;100628.97;5027031;28;20058;-80
2021/06/15 10:45:44;;;;;;;5.35;1.50;;;;;;;25.88;43.76;100621.78;5028381;28;20054;-79
2021/06/15 10:48:49;;;;;;;2.05;1.40;;;;;;;25.67;45.00;100627.97;5027894;28;20132;-78
2021/06/15 10:51:39;;;;;;;2.40;1.50;;;;;;;25.66;44.80;100623.53;5024626;28;20053;-80
2021/06/15 10:54:28;;;;;;;2.53;1.70;;;;;;;25.51;43.98;100617.97;5027509;28;20053;-78
2021/06/15 10:57:28;;;;;;;3.00;1.58;;;;;;;25.39;44.92;100608.47;5027056;28;20081;-78
2021/06/15 10:59:56;;;;;;;2.33;1.20;;;;;;;25.63;44.76;100612.94;5014646;28;20053;-79
2021/06/15 11:02:25;;;;;;;2.85;1.65;;;;;;;25.89;44.17;100609.00;5024270;28;20104;-81
2021/06/15 11:04:52;;;;;;;2.00;1.50;;;;;;;26.01;42.96;100610.25;5023698;28;20046;-80
2021/06/15 11:07:33;;;;;;;3.83;1.73;;;;;;;26.01;42.61;100614.88;5025331;28;20376;-81
2021/06/15 11:10:00;;;;;;;2.75;1.55;;;;;;;26.15;41.48;100596.78;5032073;28;20049;-80
2021/06/15 11:12:27;;;;;;;1.45;1.02;;;;;;;26.19;41.17;100600.84;5029303;28;20331;-83
2021/06/15 11:15:13;;;;;;;2.13;1.23;;;;;;;26.22;41.17;100589.56;5026367;28;20140;-78
2021/06/15 11:17:58;;;;;;;2.17;1.30;;;;;;;26.29;40.45;100595.13;5026774;28;20120;-80
2021/06/15 11:20:25;;;;;;;4.30;1.30;;;;;;;26.37;40.53;100605.97;5026719;28;20133;-79
2021/06/15 11:23:15;;;;;;;1.75;1.00;;;;;;;26.66;41.00;100614.41;5019048;28;20070;-81
2021/06/15 11:25:59;;;;;;;5.03;1.10;;;;;;;26.69;39.15;100605.81;5026714;28;20368;-79
2021/06/15 11:28:35;;;;;;;2.75;1.00;;;;;;;26.80;39.24;100608.06;5023953;28;20049;-79
2021/06/15 11:31:18;;;;;;;3.15;1.30;;;;;;;26.90;40.32;100610.53;5024459;28;20045;-77
2021/06/15 11:34:00;;;;;;;4.07;1.40;;;;;;;26.52;39.36;100616.94;5026872;28;20042;-75
2021/06/15 11:36:56;;;;;;;3.58;0.88;;;;;;;26.78;38.63;100612.88;5024692;28;20049;-76
2021/06/15 11:39:27;;;;;;;4.07;1.17;;;;;;;26.83;39.38;100612.31;5028767;28;20103;-76